sensor_id;sensor_type;location;lat;lon;timestamp;P1;durP1;ratioP1;P2;durP2;ratioP2
33150;SDS011;19508;42.578;23.416;2022-08-19T00:00:48;11.60;;;5.68;;
33150;SDS011;19508;42.578;23.416;2022-08-19T00:03:15;7.95;;;6.00;;
33150;SDS011;19508;42.578;23.416;2022-08-19T00:05:40;12.32;;;7.10;;
33150;SDS011;19508;42.578;23.416;2022-08-19T00:08:06;11.50;;;6.28;;
33150;SDS011;19508;42.578;23.416;2022-08-19T00:10:36;8.77;;;6.20;;
33150;SDS011;19508;42.578;23.416;2022-08-19T00:13:02;8.65;;;6.25;;
33150;SDS011;19508;42.578;23.416;2022-08-19T00:15:29;9.65;;;6.00;;
33150;SDS011;19508;42.578;23.416;2022-08-19T00:17:56;13.32;;;5.95;;
33150;SDS011;19508;42.578;23.416;2022-08-19T00:20:23;7.20;;;5.93;;
33150;SDS011;19508;42.578;23.416;2022-08-19T00:22:48;12.25;;;6.22;;
33150;SDS011;19508;42.578;23.416;2022-08-19T00:25:15;7.28;;;6.10;;
33150;SDS011;19508;42.578;23.416;2022-08-19T00:27:44;9.27;;;6.22;;
33150;SDS011;19508;42.578;23.416;2022-08-19T00:30:13;11.40;;;6.55;;
33150;SDS011;19508;42.578;23.416;2022-08-19T00:32:39;8.07;;;6.25;;
33150;SDS011;19508;42.578;23.416;2022-08-19T00:35:05;9.57;;;6.25;;
33150;SDS011;19508;42.578;23.416;2022-08-19T00:37:33;11.52;;;6.45;;
33150;SDS011;19508;42.578;23.416;2022-08-19T00:39:59;9.73;;;6.40;;
33150;SDS011;19508;42.578;23.416;2022-08-19T00:42:27;9.48;;;6.30;;
33150;SDS011;19508;42.578;23.416;2022-08-19T00:44:58;11.65;;;6.70;;
33150;SDS011;19508;42.578;23.416;2022-08-19T00:47:24;15.02;;;6.97;;
33150;SDS011;19508;42.578;23.416;2022-08-19T00:49:52;7.53;;;6.40;;
33150;SDS011;19508;42.578;23.416;2022-08-19T00:52:23;8.55;;;6.45;;
33150;SDS011;19508;42.578;23.416;2022-08-19T00:54:54;9.65;;;6.55;;
33150;SDS011;19508;42.578;23.416;2022-08-19T00:57:26;8.05;;;5.95;;
33150;SDS011;19508;42.578;23.416;2022-08-19T01:00:04;7.88;;;6.43;;
33150;SDS011;19508;42.578;23.416;2022-08-19T01:02:35;15.25;;;6.05;;
33150;SDS011;19508;42.578;23.416;2022-08-19T01:05:02;11.00;;;6.75;;
33150;SDS011;19508;42.578;23.416;2022-08-19T01:07:32;21.38;;;7.00;;
33150;SDS011;19508;42.578;23.416;2022-08-19T01:09:59;7.15;;;5.85;;
33150;SDS011;19508;42.578;23.416;2022-08-19T01:12:25;9.73;;;6.63;;
33150;SDS011;19508;42.578;23.416;2022-08-19T01:14:52;12.05;;;6.57;;
33150;SDS011;19508;42.578;23.416;2022-08-19T01:17:21;8.77;;;6.18;;
33150;SDS011;19508;42.578;23.416;2022-08-19T01:19:47;21.15;;;7.13;;
33150;SDS011;19508;42.578;23.416;2022-08-19T01:22:19;11.10;;;6.57;;
33150;SDS011;19508;42.578;23.416;2022-08-19T01:24:47;8.70;;;6.45;;
33150;SDS011;19508;42.578;23.416;2022-08-19T01:27:13;10.70;;;6.43;;
33150;SDS011;19508;42.578;23.416;2022-08-19T01:29:40;10.15;;;6.93;;
33150;SDS011;19508;42.578;23.416;2022-08-19T01:32:07;13.07;;;6.50;;
33150;SDS011;19508;42.578;23.416;2022-08-19T01:34:36;8.30;;;6.63;;
33150;SDS011;19508;42.578;23.416;2022-08-19T01:37:07;9.13;;;6.65;;
33150;SDS011;19508;42.578;23.416;2022-08-19T01:39:36;10.13;;;7.25;;
33150;SDS011;19508;42.578;23.416;2022-08-19T01:42:07;8.70;;;6.82;;
33150;SDS011;19508;42.578;23.416;2022-08-19T01:44:36;7.80;;;6.50;;
33150;SDS011;19508;42.578;23.416;2022-08-19T01:47:23;12.18;;;6.53;;
33150;SDS011;19508;42.578;23.416;2022-08-19T01:49:50;11.35;;;6.47;;
33150;SDS011;19508;42.578;23.416;2022-08-19T01:52:16;12.98;;;7.03;;
33150;SDS011;19508;42.578;23.416;2022-08-19T01:54:42;9.98;;;7.43;;
33150;SDS011;19508;42.578;23.416;2022-08-19T01:57:27;11.32;;;6.45;;
33150;SDS011;19508;42.578;23.416;2022-08-19T01:59:53;16.23;;;7.72;;
33150;SDS011;19508;42.578;23.416;2022-08-19T02:02:21;11.02;;;6.90;;
33150;SDS011;19508;42.578;23.416;2022-08-19T02:04:47;10.30;;;6.85;;
33150;SDS011;19508;42.578;23.416;2022-08-19T02:07:13;13.57;;;7.55;;
33150;SDS011;19508;42.578;23.416;2022-08-19T02:09:40;11.85;;;8.30;;
33150;SDS011;19508;42.578;23.416;2022-08-19T02:12:07;13.85;;;7.50;;
33150;SDS011;19508;42.578;23.416;2022-08-19T02:14:34;10.55;;;7.90;;
33150;SDS011;19508;42.578;23.416;2022-08-19T02:17:02;11.40;;;6.80;;
33150;SDS011;19508;42.578;23.416;2022-08-19T02:19:28;12.52;;;6.55;;
33150;SDS011;19508;42.578;23.416;2022-08-19T02:21:56;8.20;;;6.45;;
33150;SDS011;19508;42.578;23.416;2022-08-19T02:24:22;11.18;;;7.30;;
33150;SDS011;19508;42.578;23.416;2022-08-19T02:26:47;9.98;;;7.22;;
33150;SDS011;19508;42.578;23.416;2022-08-19T02:29:13;11.48;;;8.18;;
33150;SDS011;19508;42.578;23.416;2022-08-19T02:31:39;10.68;;;7.50;;
33150;SDS011;19508;42.578;23.416;2022-08-19T02:34:05;14.18;;;7.53;;
33150;SDS011;19508;42.578;23.416;2022-08-19T02:36:31;9.25;;;6.85;;
33150;SDS011;19508;42.578;23.416;2022-08-19T02:38:57;16.83;;;7.75;;
33150;SDS011;19508;42.578;23.416;2022-08-19T02:41:25;10.23;;;7.10;;
33150;SDS011;19508;42.578;23.416;2022-08-19T02:43:52;13.43;;;7.32;;
33150;SDS011;19508;42.578;23.416;2022-08-19T02:46:24;12.07;;;7.10;;
33150;SDS011;19508;42.578;23.416;2022-08-19T02:49:07;9.95;;;7.13;;
33150;SDS011;19508;42.578;23.416;2022-08-19T02:51:36;13.43;;;7.03;;
33150;SDS011;19508;42.578;23.416;2022-08-19T02:54:04;9.20;;;5.17;;
33150;SDS011;19508;42.578;23.416;2022-08-19T02:56:31;9.93;;;6.85;;
33150;SDS011;19508;42.578;23.416;2022-08-19T02:58:57;9.85;;;7.18;;
33150;SDS011;19508;42.578;23.416;2022-08-19T03:01:29;10.00;;;6.18;;
33150;SDS011;19508;42.578;23.416;2022-08-19T03:03:56;9.02;;;5.82;;
33150;SDS011;19508;42.578;23.416;2022-08-19T03:06:23;10.13;;;6.60;;
33150;SDS011;19508;42.578;23.416;2022-08-19T03:08:49;7.72;;;6.60;;
33150;SDS011;19508;42.578;23.416;2022-08-19T03:11:16;8.23;;;6.40;;
33150;SDS011;19508;42.578;23.416;2022-08-19T03:13:46;12.20;;;7.15;;
33150;SDS011;19508;42.578;23.416;2022-08-19T03:16:14;10.30;;;6.47;;
33150;SDS011;19508;42.578;23.416;2022-08-19T03:18:40;9.90;;;6.65;;
33150;SDS011;19508;42.578;23.416;2022-08-19T03:21:07;9.77;;;6.82;;
33150;SDS011;19508;42.578;23.416;2022-08-19T03:23:39;14.15;;;6.80;;
33150;SDS011;19508;42.578;23.416;2022-08-19T03:26:05;12.50;;;6.93;;
33150;SDS011;19508;42.578;23.416;2022-08-19T03:28:31;17.95;;;6.88;;
33150;SDS011;19508;42.578;23.416;2022-08-19T03:31:02;9.27;;;6.70;;
33150;SDS011;19508;42.578;23.416;2022-08-19T03:33:35;11.23;;;6.80;;
33150;SDS011;19508;42.578;23.416;2022-08-19T03:36:21;17.75;;;6.80;;
33150;SDS011;19508;42.578;23.416;2022-08-19T03:38:52;14.18;;;6.70;;
33150;SDS011;19508;42.578;23.416;2022-08-19T03:41:25;14.70;;;6.75;;
33150;SDS011;19508;42.578;23.416;2022-08-19T03:43:55;8.88;;;6.55;;
33150;SDS011;19508;42.578;23.416;2022-08-19T03:46:23;7.72;;;6.15;;
33150;SDS011;19508;42.578;23.416;2022-08-19T03:51:32;9.68;;;6.30;;
33150;SDS011;19508;42.578;23.416;2022-08-19T03:54:00;9.55;;;6.47;;
33150;SDS011;19508;42.578;23.416;2022-08-19T03:56:28;13.25;;;7.05;;
33150;SDS011;19508;42.578;23.416;2022-08-19T03:58:55;31.05;;;8.10;;
33150;SDS011;19508;42.578;23.416;2022-08-19T04:01:39;21.65;;;6.97;;
33150;SDS011;19508;42.578;23.416;2022-08-19T04:04:05;10.70;;;6.90;;
33150;SDS011;19508;42.578;23.416;2022-08-19T04:06:31;9.48;;;6.47;;
33150;SDS011;19508;42.578;23.416;2022-08-19T04:09:01;9.15;;;6.35;;
33150;SDS011;19508;42.578;23.416;2022-08-19T04:11:51;18.15;;;7.50;;
33150;SDS011;19508;42.578;23.416;2022-08-19T04:14:21;8.55;;;6.80;;
33150;SDS011;19508;42.578;23.416;2022-08-19T04:16:50;13.25;;;6.53;;
33150;SDS011;19508;42.578;23.416;2022-08-19T04:19:17;16.15;;;6.60;;
33150;SDS011;19508;42.578;23.416;2022-08-19T04:21:46;14.23;;;6.20;;
33150;SDS011;19508;42.578;23.416;2022-08-19T04:24:13;12.75;;;6.53;;
33150;SDS011;19508;42.578;23.416;2022-08-19T04:26:39;9.18;;;6.13;;
33150;SDS011;19508;42.578;23.416;2022-08-19T04:29:08;10.35;;;5.97;;
33150;SDS011;19508;42.578;23.416;2022-08-19T04:31:42;7.40;;;5.82;;
33150;SDS011;19508;42.578;23.416;2022-08-19T04:34:10;11.40;;;6.45;;
33150;SDS011;19508;42.578;23.416;2022-08-19T04:36:39;10.10;;;6.15;;
33150;SDS011;19508;42.578;23.416;2022-08-19T04:39:12;10.77;;;5.95;;
33150;SDS011;19508;42.578;23.416;2022-08-19T04:41:39;12.82;;;6.03;;
33150;SDS011;19508;42.578;23.416;2022-08-19T04:44:24;13.98;;;5.93;;
33150;SDS011;19508;42.578;23.416;2022-08-19T04:46:50;12.13;;;5.60;;
33150;SDS011;19508;42.578;23.416;2022-08-19T04:49:18;6.05;;;5.05;;
33150;SDS011;19508;42.578;23.416;2022-08-19T04:51:46;10.15;;;6.03;;
33150;SDS011;19508;42.578;23.416;2022-08-19T04:54:13;12.43;;;5.03;;
33150;SDS011;19508;42.578;23.416;2022-08-19T04:56:39;7.38;;;5.20;;
33150;SDS011;19508;42.578;23.416;2022-08-19T04:59:06;8.32;;;5.70;;
33150;SDS011;19508;42.578;23.416;2022-08-19T05:01:33;9.35;;;5.35;;
33150;SDS011;19508;42.578;23.416;2022-08-19T05:04:00;10.57;;;5.15;;
33150;SDS011;19508;42.578;23.416;2022-08-19T05:06:30;8.48;;;5.05;;
33150;SDS011;19508;42.578;23.416;2022-08-19T05:08:59;8.90;;;5.63;;
33150;SDS011;19508;42.578;23.416;2022-08-19T05:11:26;9.75;;;6.03;;
33150;SDS011;19508;42.578;23.416;2022-08-19T05:13:55;7.95;;;6.32;;
33150;SDS011;19508;42.578;23.416;2022-08-19T05:16:22;10.10;;;5.80;;
33150;SDS011;19508;42.578;23.416;2022-08-19T05:18:49;12.13;;;5.75;;
33150;SDS011;19508;42.578;23.416;2022-08-19T05:21:33;10.05;;;5.95;;
33150;SDS011;19508;42.578;23.416;2022-08-19T05:24:19;10.77;;;6.25;;
33150;SDS011;19508;42.578;23.416;2022-08-19T05:26:46;10.00;;;5.68;;
33150;SDS011;19508;42.578;23.416;2022-08-19T05:29:15;8.75;;;5.70;;
33150;SDS011;19508;42.578;23.416;2022-08-19T05:31:42;12.55;;;5.82;;
33150;SDS011;19508;42.578;23.416;2022-08-19T05:34:08;17.20;;;5.57;;
33150;SDS011;19508;42.578;23.416;2022-08-19T05:36:39;7.15;;;5.43;;
33150;SDS011;19508;42.578;23.416;2022-08-19T05:39:08;9.05;;;5.45;;
33150;SDS011;19508;42.578;23.416;2022-08-19T05:41:41;11.25;;;5.72;;
33150;SDS011;19508;42.578;23.416;2022-08-19T05:44:12;10.63;;;5.45;;
33150;SDS011;19508;42.578;23.416;2022-08-19T05:46:39;10.63;;;5.65;;
33150;SDS011;19508;42.578;23.416;2022-08-19T05:49:06;5.65;;;5.00;;
33150;SDS011;19508;42.578;23.416;2022-08-19T05:51:33;7.75;;;4.80;;
33150;SDS011;19508;42.578;23.416;2022-08-19T05:54:01;11.27;;;5.45;;
33150;SDS011;19508;42.578;23.416;2022-08-19T05:56:27;9.00;;;5.30;;
33150;SDS011;19508;42.578;23.416;2022-08-19T05:58:52;16.92;;;5.18;;
33150;SDS011;19508;42.578;23.416;2022-08-19T06:01:19;8.77;;;5.28;;
33150;SDS011;19508;42.578;23.416;2022-08-19T06:03:45;9.95;;;5.53;;
33150;SDS011;19508;42.578;23.416;2022-08-19T06:06:13;13.90;;;5.40;;
33150;SDS011;19508;42.578;23.416;2022-08-19T06:11:20;6.88;;;5.38;;
33150;SDS011;19508;42.578;23.416;2022-08-19T06:13:49;14.52;;;5.28;;
33150;SDS011;19508;42.578;23.416;2022-08-19T06:16:20;13.50;;;5.00;;
33150;SDS011;19508;42.578;23.416;2022-08-19T06:18:50;14.23;;;5.47;;
33150;SDS011;19508;42.578;23.416;2022-08-19T06:21:21;145.43;;;28.20;;
33150;SDS011;19508;42.578;23.416;2022-08-19T06:23:48;11.68;;;6.03;;
33150;SDS011;19508;42.578;23.416;2022-08-19T06:26:16;7.93;;;4.90;;
33150;SDS011;19508;42.578;23.416;2022-08-19T06:28:42;9.00;;;4.15;;
33150;SDS011;19508;42.578;23.416;2022-08-19T06:31:12;9.75;;;4.35;;
33150;SDS011;19508;42.578;23.416;2022-08-19T06:33:39;8.25;;;5.10;;
33150;SDS011;19508;42.578;23.416;2022-08-19T06:36:20;17.75;;;4.78;;
33150;SDS011;19508;42.578;23.416;2022-08-19T06:38:49;12.57;;;5.40;;
33150;SDS011;19508;42.578;23.416;2022-08-19T06:41:14;15.25;;;4.57;;
33150;SDS011;19508;42.578;23.416;2022-08-19T06:43:40;10.55;;;4.28;;
33150;SDS011;19508;42.578;23.416;2022-08-19T06:46:11;14.55;;;4.05;;
33150;SDS011;19508;42.578;23.416;2022-08-19T06:51:04;11.38;;;4.15;;
33150;SDS011;19508;42.578;23.416;2022-08-19T06:53:31;8.88;;;4.00;;
33150;SDS011;19508;42.578;23.416;2022-08-19T06:55:56;9.60;;;4.00;;
33150;SDS011;19508;42.578;23.416;2022-08-19T06:58:30;5.18;;;3.75;;
33150;SDS011;19508;42.578;23.416;2022-08-19T07:01:02;6.68;;;3.95;;
33150;SDS011;19508;42.578;23.416;2022-08-19T07:03:29;6.00;;;3.83;;
33150;SDS011;19508;42.578;23.416;2022-08-19T07:05:57;8.98;;;3.42;;
33150;SDS011;19508;42.578;23.416;2022-08-19T07:08:27;5.70;;;3.50;;
33150;SDS011;19508;42.578;23.416;2022-08-19T07:10:53;5.43;;;3.63;;
33150;SDS011;19508;42.578;23.416;2022-08-19T07:13:18;6.55;;;4.35;;
33150;SDS011;19508;42.578;23.416;2022-08-19T07:15:44;11.27;;;3.42;;
33150;SDS011;19508;42.578;23.416;2022-08-19T07:18:11;5.53;;;3.83;;
33150;SDS011;19508;42.578;23.416;2022-08-19T07:23:14;3.80;;;2.75;;
33150;SDS011;19508;42.578;23.416;2022-08-19T07:25:40;7.25;;;3.33;;
33150;SDS011;19508;42.578;23.416;2022-08-19T07:28:06;11.45;;;3.05;;
33150;SDS011;19508;42.578;23.416;2022-08-19T07:30:36;10.88;;;3.47;;
33150;SDS011;19508;42.578;23.416;2022-08-19T07:33:02;23.00;;;3.28;;
33150;SDS011;19508;42.578;23.416;2022-08-19T07:35:28;5.15;;;3.17;;
33150;SDS011;19508;42.578;23.416;2022-08-19T07:37:53;8.07;;;4.00;;
33150;SDS011;19508;42.578;23.416;2022-08-19T07:40:19;7.25;;;3.75;;
33150;SDS011;19508;42.578;23.416;2022-08-19T07:42:44;9.43;;;3.90;;
33150;SDS011;19508;42.578;23.416;2022-08-19T07:45:10;14.32;;;3.72;;
33150;SDS011;19508;42.578;23.416;2022-08-19T07:47:35;9.25;;;4.20;;
33150;SDS011;19508;42.578;23.416;2022-08-19T07:50:00;24.65;;;4.28;;
33150;SDS011;19508;42.578;23.416;2022-08-19T07:52:29;21.42;;;4.55;;
33150;SDS011;19508;42.578;23.416;2022-08-19T07:54:54;12.38;;;4.60;;
33150;SDS011;19508;42.578;23.416;2022-08-19T07:57:20;9.35;;;3.67;;
33150;SDS011;19508;42.578;23.416;2022-08-19T07:59:45;10.40;;;3.80;;
33150;SDS011;19508;42.578;23.416;2022-08-19T08:02:11;15.80;;;3.42;;
33150;SDS011;19508;42.578;23.416;2022-08-19T08:04:36;8.80;;;3.60;;
33150;SDS011;19508;42.578;23.416;2022-08-19T08:07:20;9.48;;;4.03;;
33150;SDS011;19508;42.578;23.416;2022-08-19T08:10:05;13.00;;;4.00;;
33150;SDS011;19508;42.578;23.416;2022-08-19T08:12:33;19.10;;;3.50;;
33150;SDS011;19508;42.578;23.416;2022-08-19T08:15:05;9.82;;;3.67;;
33150;SDS011;19508;42.578;23.416;2022-08-19T08:17:33;17.00;;;3.55;;
33150;SDS011;19508;42.578;23.416;2022-08-19T08:19:58;5.15;;;3.00;;
33150;SDS011;19508;42.578;23.416;2022-08-19T08:22:24;4.45;;;3.45;;
33150;SDS011;19508;42.578;23.416;2022-08-19T08:25:12;8.07;;;3.28;;
33150;SDS011;19508;42.578;23.416;2022-08-19T08:27:41;8.57;;;3.13;;
33150;SDS011;19508;42.578;23.416;2022-08-19T08:30:09;6.82;;;3.45;;
33150;SDS011;19508;42.578;23.416;2022-08-19T08:32:36;14.20;;;3.03;;
33150;SDS011;19508;42.578;23.416;2022-08-19T08:35:07;11.82;;;3.50;;
33150;SDS011;19508;42.578;23.416;2022-08-19T08:37:35;10.77;;;3.55;;
33150;SDS011;19508;42.578;23.416;2022-08-19T08:40:09;4.80;;;2.90;;
33150;SDS011;19508;42.578;23.416;2022-08-19T08:42:45;12.77;;;2.85;;
33150;SDS011;19508;42.578;23.416;2022-08-19T08:45:18;3.95;;;3.05;;
33150;SDS011;19508;42.578;23.416;2022-08-19T08:47:47;9.20;;;3.17;;
33150;SDS011;19508;42.578;23.416;2022-08-19T08:50:19;6.40;;;2.70;;
33150;SDS011;19508;42.578;23.416;2022-08-19T08:53:06;9.02;;;2.83;;
33150;SDS011;19508;42.578;23.416;2022-08-19T08:55:33;9.90;;;2.80;;
33150;SDS011;19508;42.578;23.416;2022-08-19T09:00:32;7.18;;;2.33;;
33150;SDS011;19508;42.578;23.416;2022-08-19T09:03:00;5.35;;;2.40;;
33150;SDS011;19508;42.578;23.416;2022-08-19T09:17:16;6.55;;;2.40;;
33150;SDS011;19508;42.578;23.416;2022-08-19T09:19:52;2.83;;;2.30;;
33150;SDS011;19508;42.578;23.416;2022-08-19T09:22:21;6.53;;;2.65;;
33150;SDS011;19508;42.578;23.416;2022-08-19T09:24:48;4.05;;;2.25;;
33150;SDS011;19508;42.578;23.416;2022-08-19T09:27:19;11.10;;;2.50;;
33150;SDS011;19508;42.578;23.416;2022-08-19T09:29:48;5.20;;;2.50;;
33150;SDS011;19508;42.578;23.416;2022-08-19T09:32:14;3.65;;;2.45;;
33150;SDS011;19508;42.578;23.416;2022-08-19T09:34:40;3.53;;;2.25;;
33150;SDS011;19508;42.578;23.416;2022-08-19T09:37:06;9.20;;;2.80;;
33150;SDS011;19508;42.578;23.416;2022-08-19T09:39:32;9.38;;;2.60;;
33150;SDS011;19508;42.578;23.416;2022-08-19T09:41:57;5.28;;;2.40;;
33150;SDS011;19508;42.578;23.416;2022-08-19T09:44:22;13.77;;;2.80;;
33150;SDS011;19508;42.578;23.416;2022-08-19T09:46:48;3.20;;;2.38;;
33150;SDS011;19508;42.578;23.416;2022-08-19T09:49:18;6.40;;;2.40;;
33150;SDS011;19508;42.578;23.416;2022-08-19T09:51:48;15.20;;;2.97;;
33150;SDS011;19508;42.578;23.416;2022-08-19T09:54:15;6.28;;;2.83;;
33150;SDS011;19508;42.578;23.416;2022-08-19T09:56:40;8.20;;;3.35;;
33150;SDS011;19508;42.578;23.416;2022-08-19T09:59:06;5.28;;;2.78;;
33150;SDS011;19508;42.578;23.416;2022-08-19T10:01:31;7.60;;;3.10;;
33150;SDS011;19508;42.578;23.416;2022-08-19T10:03:58;6.40;;;2.92;;
33150;SDS011;19508;42.578;23.416;2022-08-19T10:06:26;6.53;;;2.50;;
33150;SDS011;19508;42.578;23.416;2022-08-19T10:08:55;10.90;;;3.08;;
33150;SDS011;19508;42.578;23.416;2022-08-19T10:11:20;10.07;;;2.42;;
33150;SDS011;19508;42.578;23.416;2022-08-19T10:13:46;14.32;;;2.92;;
33150;SDS011;19508;42.578;23.416;2022-08-19T10:16:13;5.18;;;2.88;;
33150;SDS011;19508;42.578;23.416;2022-08-19T10:18:41;5.07;;;2.78;;
33150;SDS011;19508;42.578;23.416;2022-08-19T10:21:12;7.38;;;2.88;;
33150;SDS011;19508;42.578;23.416;2022-08-19T10:23:41;10.52;;;2.78;;
33150;SDS011;19508;42.578;23.416;2022-08-19T10:26:13;11.63;;;2.72;;
33150;SDS011;19508;42.578;23.416;2022-08-19T10:28:42;13.15;;;2.78;;
33150;SDS011;19508;42.578;23.416;2022-08-19T10:31:09;12.75;;;2.80;;
33150;SDS011;19508;42.578;23.416;2022-08-19T10:33:47;7.47;;;2.78;;
33150;SDS011;19508;42.578;23.416;2022-08-19T10:36:15;9.25;;;2.65;;
33150;SDS011;19508;42.578;23.416;2022-08-19T10:38:45;8.00;;;2.88;;
33150;SDS011;19508;42.578;23.416;2022-08-19T10:41:15;9.80;;;3.28;;
33150;SDS011;19508;42.578;23.416;2022-08-19T10:43:42;4.75;;;3.00;;
33150;SDS011;19508;42.578;23.416;2022-08-19T10:46:10;4.65;;;2.53;;
33150;SDS011;19508;42.578;23.416;2022-08-19T10:48:38;7.07;;;2.92;;
33150;SDS011;19508;42.578;23.416;2022-08-19T10:51:04;6.53;;;2.80;;
33150;SDS011;19508;42.578;23.416;2022-08-19T10:53:48;5.57;;;2.67;;
33150;SDS011;19508;42.578;23.416;2022-08-19T10:56:14;7.68;;;2.65;;
33150;SDS011;19508;42.578;23.416;2022-08-19T10:58:58;5.55;;;2.60;;
33150;SDS011;19508;42.578;23.416;2022-08-19T11:01:25;8.15;;;3.28;;
33150;SDS011;19508;42.578;23.416;2022-08-19T11:03:52;6.30;;;2.33;;
33150;SDS011;19508;42.578;23.416;2022-08-19T11:06:17;5.20;;;2.80;;
33150;SDS011;19508;42.578;23.416;2022-08-19T11:08:44;9.75;;;3.25;;
33150;SDS011;19508;42.578;23.416;2022-08-19T11:11:10;11.20;;;2.78;;
33150;SDS011;19508;42.578;23.416;2022-08-19T11:13:37;14.18;;;3.28;;
33150;SDS011;19508;42.578;23.416;2022-08-19T11:18:36;7.30;;;2.78;;
33150;SDS011;19508;42.578;23.416;2022-08-19T11:21:22;7.78;;;2.47;;
33150;SDS011;19508;42.578;23.416;2022-08-19T11:23:54;12.60;;;3.00;;
33150;SDS011;19508;42.578;23.416;2022-08-19T11:26:22;3.60;;;2.70;;
33150;SDS011;19508;42.578;23.416;2022-08-19T11:28:49;10.10;;;2.72;;
33150;SDS011;19508;42.578;23.416;2022-08-19T11:31:22;8.68;;;3.05;;
33150;SDS011;19508;42.578;23.416;2022-08-19T11:33:50;7.07;;;3.17;;
33150;SDS011;19508;42.578;23.416;2022-08-19T11:36:16;6.60;;;2.78;;
33150;SDS011;19508;42.578;23.416;2022-08-19T11:38:42;10.90;;;3.05;;
33150;SDS011;19508;42.578;23.416;2022-08-19T11:41:09;6.13;;;2.80;;
33150;SDS011;19508;42.578;23.416;2022-08-19T11:43:35;9.25;;;2.90;;
33150;SDS011;19508;42.578;23.416;2022-08-19T11:46:05;7.35;;;2.90;;
33150;SDS011;19508;42.578;23.416;2022-08-19T11:48:35;6.93;;;2.80;;
33150;SDS011;19508;42.578;23.416;2022-08-19T11:51:03;12.95;;;2.83;;
33150;SDS011;19508;42.578;23.416;2022-08-19T11:53:31;8.53;;;3.00;;
33150;SDS011;19508;42.578;23.416;2022-08-19T11:55:57;7.70;;;3.20;;
33150;SDS011;19508;42.578;23.416;2022-08-19T11:58:23;11.35;;;2.80;;
33150;SDS011;19508;42.578;23.416;2022-08-19T12:00:49;12.48;;;3.50;;
33150;SDS011;19508;42.578;23.416;2022-08-19T12:03:15;6.80;;;3.15;;
33150;SDS011;19508;42.578;23.416;2022-08-19T12:05:41;11.23;;;3.10;;
33150;SDS011;19508;42.578;23.416;2022-08-19T12:08:07;4.20;;;2.80;;
33150;SDS011;19508;42.578;23.416;2022-08-19T12:10:33;5.18;;;2.70;;
33150;SDS011;19508;42.578;23.416;2022-08-19T12:12:59;7.88;;;2.85;;
33150;SDS011;19508;42.578;23.416;2022-08-19T12:15:25;6.38;;;3.17;;
33150;SDS011;19508;42.578;23.416;2022-08-19T12:17:52;7.05;;;3.22;;
33150;SDS011;19508;42.578;23.416;2022-08-19T12:20:20;9.98;;;3.40;;
33150;SDS011;19508;42.578;23.416;2022-08-19T12:22:45;10.57;;;2.80;;
33150;SDS011;19508;42.578;23.416;2022-08-19T12:25:11;10.07;;;3.15;;
33150;SDS011;19508;42.578;23.416;2022-08-19T12:27:37;8.45;;;2.92;;
33150;SDS011;19508;42.578;23.416;2022-08-19T12:30:04;5.82;;;2.92;;
33150;SDS011;19508;42.578;23.416;2022-08-19T12:32:31;7.07;;;3.15;;
33150;SDS011;19508;42.578;23.416;2022-08-19T12:34:57;11.80;;;3.08;;
33150;SDS011;19508;42.578;23.416;2022-08-19T12:37:22;9.82;;;2.95;;
33150;SDS011;19508;42.578;23.416;2022-08-19T12:39:48;6.20;;;2.75;;
33150;SDS011;19508;42.578;23.416;2022-08-19T12:42:13;5.72;;;3.13;;
33150;SDS011;19508;42.578;23.416;2022-08-19T12:44:40;15.40;;;3.63;;
33150;SDS011;19508;42.578;23.416;2022-08-19T12:49:36;8.48;;;3.38;;
33150;SDS011;19508;42.578;23.416;2022-08-19T12:52:03;7.28;;;2.97;;
33150;SDS011;19508;42.578;23.416;2022-08-19T12:54:29;8.88;;;2.88;;
33150;SDS011;19508;42.578;23.416;2022-08-19T12:56:56;6.82;;;2.97;;
33150;SDS011;19508;42.578;23.416;2022-08-19T12:59:23;5.18;;;2.53;;
33150;SDS011;19508;42.578;23.416;2022-08-19T13:01:48;7.53;;;3.13;;
33150;SDS011;19508;42.578;23.416;2022-08-19T13:04:14;10.20;;;2.95;;
33150;SDS011;19508;42.578;23.416;2022-08-19T13:06:41;8.63;;;3.13;;
33150;SDS011;19508;42.578;23.416;2022-08-19T13:09:07;9.30;;;2.85;;
33150;SDS011;19508;42.578;23.416;2022-08-19T13:11:32;8.25;;;3.35;;
33150;SDS011;19508;42.578;23.416;2022-08-19T13:13:59;21.17;;;3.28;;
33150;SDS011;19508;42.578;23.416;2022-08-19T13:16:25;8.00;;;3.50;;
33150;SDS011;19508;42.578;23.416;2022-08-19T13:18:52;8.50;;;3.17;;
33150;SDS011;19508;42.578;23.416;2022-08-19T13:21:19;6.53;;;3.08;;
33150;SDS011;19508;42.578;23.416;2022-08-19T13:23:47;9.20;;;3.50;;
33150;SDS011;19508;42.578;23.416;2022-08-19T13:26:14;14.25;;;3.08;;
33150;SDS011;19508;42.578;23.416;2022-08-19T13:28:40;9.80;;;3.53;;
33150;SDS011;19508;42.578;23.416;2022-08-19T13:31:26;10.68;;;3.40;;
33150;SDS011;19508;42.578;23.416;2022-08-19T13:34:13;12.98;;;3.40;;
33150;SDS011;19508;42.578;23.416;2022-08-19T13:36:44;7.68;;;3.38;;
33150;SDS011;19508;42.578;23.416;2022-08-19T13:39:10;8.85;;;4.03;;
33150;SDS011;19508;42.578;23.416;2022-08-19T13:41:36;6.82;;;3.17;;
33150;SDS011;19508;42.578;23.416;2022-08-19T13:44:02;10.15;;;4.18;;
33150;SDS011;19508;42.578;23.416;2022-08-19T13:46:29;7.57;;;3.47;;
33150;SDS011;19508;42.578;23.416;2022-08-19T13:48:55;13.10;;;3.78;;
33150;SDS011;19508;42.578;23.416;2022-08-19T13:51:21;10.38;;;3.60;;
33150;SDS011;19508;42.578;23.416;2022-08-19T13:53:47;12.70;;;3.80;;
33150;SDS011;19508;42.578;23.416;2022-08-19T13:56:14;6.47;;;3.58;;
33150;SDS011;19508;42.578;23.416;2022-08-19T13:58:42;7.30;;;3.53;;
33150;SDS011;19508;42.578;23.416;2022-08-19T14:01:08;8.88;;;3.60;;
33150;SDS011;19508;42.578;23.416;2022-08-19T14:03:34;16.33;;;4.03;;
33150;SDS011;19508;42.578;23.416;2022-08-19T14:06:00;8.85;;;3.30;;
33150;SDS011;19508;42.578;23.416;2022-08-19T14:08:27;12.75;;;3.65;;
33150;SDS011;19508;42.578;23.416;2022-08-19T14:10:53;10.82;;;3.78;;
33150;SDS011;19508;42.578;23.416;2022-08-19T14:13:20;12.48;;;3.83;;
33150;SDS011;19508;42.578;23.416;2022-08-19T14:15:47;7.68;;;3.53;;
33150;SDS011;19508;42.578;23.416;2022-08-19T14:18:13;15.98;;;4.00;;
33150;SDS011;19508;42.578;23.416;2022-08-19T14:20:42;18.25;;;3.90;;
33150;SDS011;19508;42.578;23.416;2022-08-19T14:23:08;11.50;;;4.07;;
33150;SDS011;19508;42.578;23.416;2022-08-19T14:25:34;8.60;;;3.80;;
33150;SDS011;19508;42.578;23.416;2022-08-19T14:28:00;12.55;;;4.15;;
33150;SDS011;19508;42.578;23.416;2022-08-19T14:30:27;10.10;;;4.40;;
33150;SDS011;19508;42.578;23.416;2022-08-19T14:32:55;7.63;;;3.88;;
33150;SDS011;19508;42.578;23.416;2022-08-19T14:35:21;14.00;;;4.38;;
33150;SDS011;19508;42.578;23.416;2022-08-19T14:37:47;10.20;;;4.10;;
33150;SDS011;19508;42.578;23.416;2022-08-19T14:40:15;14.02;;;4.35;;
33150;SDS011;19508;42.578;23.416;2022-08-19T14:42:45;15.20;;;4.28;;
33150;SDS011;19508;42.578;23.416;2022-08-19T14:45:12;12.38;;;4.50;;
33150;SDS011;19508;42.578;23.416;2022-08-19T14:47:38;7.63;;;3.97;;
33150;SDS011;19508;42.578;23.416;2022-08-19T14:50:05;6.18;;;3.67;;
33150;SDS011;19508;42.578;23.416;2022-08-19T14:52:32;17.52;;;4.53;;
33150;SDS011;19508;42.578;23.416;2022-08-19T14:54:57;12.75;;;4.32;;
33150;SDS011;19508;42.578;23.416;2022-08-19T14:57:23;10.23;;;4.15;;
33150;SDS011;19508;42.578;23.416;2022-08-19T14:59:48;14.60;;;4.10;;
33150;SDS011;19508;42.578;23.416;2022-08-19T15:02:14;8.30;;;3.88;;
33150;SDS011;19508;42.578;23.416;2022-08-19T15:04:39;14.55;;;4.07;;